Time;durP1;ratioP1;P1;durP2;ratioP2;P2;SDS_P1;SDS_P2;PMS_P1;PMS_P2;Temp;Humidity;BMP_temperature;BMP_pressure;BME280_temperature;BME280_humidity;BME280_pressure;Samples;Min_cycle;Max_cycle;Signal;HPM_P1;HPM_P2
2021/11/25 00:02:00;;;;;;;14.85;12.50;;;;;;;4.59;75.51;99666.19;4976887;28;20050;-54
2021/11/25 00:04:28;;;;;;;22.15;13.52;;;;;;;4.59;76.20;99669.59;4976730;28;20050;-54
2021/11/25 00:06:56;;;;;;;14.80;12.02;;;;;;;4.59;76.29;99674.75;4994173;28;20066;-55
2021/11/25 00:09:28;;;;;;;15.10;13.55;;;;;;;4.60;76.40;99660.19;4993076;28;20106;-54
2021/11/25 00:11:54;;;;;;;15.20;12.52;;;;;;;4.59;76.17;99658.47;4994617;28;20058;-55
2021/11/25 00:14:22;;;;;;;17.05;13.52;;;;;;;4.60;76.57;99665.31;4993087;28;20070;-55
2021/11/25 00:16:55;;;;;;;15.63;13.75;;;;;;;4.57;76.18;99656.72;4976692;28;20061;-54
2021/11/25 00:19:24;;;;;;;15.18;12.60;;;;;;;4.54;76.01;99651.50;4993045;28;20030;-54
2021/11/25 00:21:52;;;;;;;13.68;12.20;;;;;;;4.55;75.82;99649.78;4993367;28;20045;-54
2021/11/25 00:24:24;;;;;;;15.93;14.23;;;;;;;4.55;75.71;99649.78;4976934;28;20038;-54
2021/11/25 00:26:56;;;;;;;16.65;12.77;;;;;;;4.55;75.67;99647.22;4976820;28;20035;-54
2021/11/25 00:29:28;;;;;;;17.17;13.15;;;;;;;4.53;76.33;99644.59;4976733;28;20038;-55
2021/11/25 00:31:56;;;;;;;14.82;12.27;;;;;;;4.53;76.23;99634.34;4992876;28;20486;-55
2021/11/25 00:34:22;;;;;;;14.52;12.00;;;;;;;4.52;76.04;99632.59;4992535;28;20058;-55
2021/11/25 00:36:56;;;;;;;16.75;13.30;;;;;;;4.52;76.56;99641.97;4994059;28;20031;-54
2021/11/25 00:39:27;;;;;;;15.18;12.60;;;;;;;4.51;75.70;99638.53;4996392;28;20034;-55
2021/11/25 00:41:53;;;;;;;15.80;13.25;;;;;;;4.53;75.58;99628.31;4996799;28;20560;-55
2021/11/25 00:44:24;;;;;;;15.45;12.82;;;;;;;4.51;76.44;99641.09;4980585;28;20132;-55
2021/11/25 00:46:55;;;;;;;15.70;12.77;;;;;;;4.51;75.97;99633.41;4980332;28;20038;-55
2021/11/25 00:49:29;;;;;;;19.85;13.27;;;;;;;4.50;76.23;99629.09;4980351;28;20034;-55
2021/11/25 00:51:54;;;;;;;16.70;12.80;;;;;;;4.51;76.21;99630.00;4996859;28;20125;-55
2021/11/25 00:54:32;;;;;;;17.55;13.70;;;;;;;4.50;76.30;99623.97;4996524;28;20613;-55
2021/11/25 00:56:57;;;;;;;15.77;13.32;;;;;;;4.50;76.70;99623.09;4996390;28;20041;-56
2021/11/25 00:59:26;;;;;;;15.18;13.55;;;;;;;4.51;76.21;99614.59;4997359;28;20034;-55
2021/11/25 01:01:51;;;;;;;17.08;13.23;;;;;;;4.51;76.03;99617.16;5003109;28;20046;-54
2021/11/25 01:04:22;;;;;;;17.15;12.82;;;;;;;4.50;76.63;99617.97;4999506;28;20041;-56
2021/11/25 01:06:54;;;;;;;15.32;12.65;;;;;;;4.49;75.99;99611.09;4983138;28;20037;-54
2021/11/25 01:09:20;;;;;;;17.52;13.45;;;;;;;4.49;76.09;99617.09;4998858;28;20065;-54
2021/11/25 01:11:54;;;;;;;16.80;14.30;;;;;;;4.48;75.66;99620.47;5016923;28;20042;-55
2021/11/25 01:14:23;;;;;;;16.83;13.48;;;;;;;4.47;76.14;99618.72;5016894;28;20034;-55
2021/11/25 01:16:51;;;;;;;21.20;14.57;;;;;;;4.45;75.82;99602.41;4983314;28;20111;-55
2021/11/25 01:19:22;;;;;;;17.13;14.20;;;;;;;4.45;75.30;99602.41;5016863;28;20069;-55
2021/11/25 01:21:48;;;;;;;17.35;13.10;;;;;;;4.46;75.70;99599.00;4999347;28;20501;-55
2021/11/25 01:24:13;;;;;;;17.95;14.13;;;;;;;4.47;76.19;99598.19;5016657;28;20092;-55
2021/11/25 01:26:44;;;;;;;16.90;14.15;;;;;;;4.47;75.90;99597.34;5016667;28;20046;-55
2021/11/25 01:29:17;;;;;;;21.02;14.82;;;;;;;4.48;75.81;99594.81;4982658;28;20040;-55
2021/11/25 01:31:46;;;;;;;15.20;13.68;;;;;;;4.48;75.90;99599.94;4999368;28;20046;-55
2021/11/25 01:34:20;;;;;;;18.88;14.07;;;;;;;4.49;76.11;99608.53;4998950;28;20044;-55
2021/11/25 01:36:51;;;;;;;19.33;14.30;;;;;;;4.48;76.23;99610.19;5016776;28;20050;-55
2021/11/25 01:39:23;;;;;;;16.05;13.55;;;;;;;4.50;75.50;99607.72;4983420;28;20092;-55
2021/11/25 01:41:55;;;;;;;16.23;14.45;;;;;;;4.50;75.93;99612.84;4999154;28;20457;-55
2021/11/25 01:44:25;;;;;;;16.02;13.57;;;;;;;4.49;75.86;99611.09;4998963;28;20073;-55
2021/11/25 01:46:54;;;;;;;17.33;14.55;;;;;;;4.50;75.83;99608.56;4982573;28;20073;-55
2021/11/25 01:49:19;;;;;;;16.25;13.88;;;;;;;4.49;76.44;99606.81;5015706;28;20038;-54
2021/11/25 01:51:50;;;;;;;16.70;14.15;;;;;;;4.50;76.29;99610.28;5015580;28;20037;-56
2021/11/25 01:54:26;;;;;;;18.37;15.07;;;;;;;4.49;76.34;99611.09;5016201;28;20069;-55
2021/11/25 01:56:57;;;;;;;17.27;14.75;;;;;;;4.49;76.06;99600.81;4998723;28;20100;-55
2021/11/25 01:59:33;;;;;;;18.42;13.88;;;;;;;4.50;76.10;99608.56;4982794;28;20049;-54
2021/11/25 02:02:08;;;;;;;18.33;14.25;;;;;;;4.49;75.45;99599.13;4998266;28;20485;-55
2021/11/25 02:04:33;;;;;;;17.38;13.73;;;;;;;4.49;75.76;99595.69;5016254;28;20128;-55
2021/11/25 02:06:59;;;;;;;17.92;14.68;;;;;;;4.48;75.68;99591.38;4998277;28;20070;-55
2021/11/25 02:09:26;;;;;;;16.13;13.13;;;;;;;4.47;75.86;99589.63;4998439;28;20026;-54
2021/11/25 02:11:52;;;;;;;16.88;14.48;;;;;;;4.46;75.75;99583.63;4998486;28;20177;-55
2021/11/25 02:14:20;;;;;;;20.52;14.13;;;;;;;4.45;76.04;99589.56;5015736;28;20042;-55
2021/11/25 02:16:52;;;;;;;17.27;13.45;;;;;;;4.43;75.85;99586.09;4998183;28;20041;-56
2021/11/25 02:19:24;;;;;;;15.55;13.40;;;;;;;4.42;76.11;99580.09;4998611;28;20034;-54
2021/11/25 02:21:49;;;;;;;16.98;14.02;;;;;;;4.43;75.44;99583.53;4981843;28;20045;-54
2021/11/25 02:24:20;;;;;;;17.60;14.15;;;;;;;4.42;75.95;99566.41;5015632;28;20389;-55
2021/11/25 02:26:50;;;;;;;18.85;14.93;;;;;;;4.43;75.49;99557.88;4997973;28;20042;-54
2021/11/25 02:29:26;;;;;;;18.45;15.10;;;;;;;4.44;75.73;99564.72;4982736;28;20184;-54
2021/11/25 02:31:56;;;;;;;17.93;14.57;;;;;;;4.46;75.85;99562.22;4998335;28;20046;-55
2021/11/25 02:34:22;;;;;;;19.10;14.32;;;;;;;4.45;75.62;99557.91;4981871;28;20049;-54
2021/11/25 02:36:53;;;;;;;17.85;15.57;;;;;;;4.45;75.74;99557.91;5015403;28;20042;-55
2021/11/25 02:39:21;;;;;;;18.67;14.38;;;;;;;4.44;75.77;99562.16;4981793;28;20132;-54
2021/11/25 02:41:49;;;;;;;17.92;14.68;;;;;;;4.44;75.75;99559.59;4981488;28;20109;-54
2021/11/25 02:44:17;;;;;;;18.02;15.65;;;;;;;4.43;75.83;99557.88;4981467;28;20481;-55
2021/11/25 02:47:00;;;;;;;17.95;14.43;;;;;;;4.44;75.57;99556.16;4981913;28;20025;-54
2021/11/25 02:49:29;;;;;;;18.95;14.80;;;;;;;4.41;75.73;99560.38;4997939;28;20061;-55
2021/11/25 02:51:57;;;;;;;18.52;14.73;;;;;;;4.42;75.94;99558.69;5015088;28;20497;-55
2021/11/25 02:54:23;;;;;;;19.75;15.75;;;;;;;4.40;76.13;99558.63;4981329;28;20042;-54
2021/11/25 02:56:58;;;;;;;21.08;15.68;;;;;;;4.40;75.66;99560.34;5014848;28;20126;-55
2021/11/25 02:59:28;;;;;;;18.75;14.75;;;;;;;4.38;75.61;99560.25;5014897;28;20049;-54
2021/11/25 03:01:59;;;;;;;16.65;13.80;;;;;;;4.38;75.65;99546.56;4981053;28;20058;-55
2021/11/25 03:04:30;;;;;;;17.55;15.07;;;;;;;4.38;75.90;99544.00;4981480;28;20393;-55
2021/11/25 03:07:02;;;;;;;17.35;14.52;;;;;;;4.36;75.66;99540.50;5015285;28;20049;-54
2021/11/25 03:09:30;;;;;;;22.38;14.35;;;;;;;4.36;75.98;99543.09;4981624;28;20124;-55
2021/11/25 03:11:57;;;;;;;19.65;13.60;;;;;;;4.34;75.54;99535.34;5015028;28;20080;-55
2021/11/25 03:14:33;;;;;;;16.45;14.35;;;;;;;4.34;75.72;99542.16;5014644;28;20081;-55
2021/11/25 03:16:59;;;;;;;17.48;14.15;;;;;;;4.33;75.99;99542.97;5014989;28;20068;-55
2021/11/25 03:19:24;;;;;;;17.67;14.63;;;;;;;4.32;75.41;99544.69;4996964;28;20081;-54
2021/11/25 03:22:03;;;;;;;20.00;14.10;;;;;;;4.28;75.66;99535.13;5014606;28;20496;-55
2021/11/25 03:24:33;;;;;;;19.40;14.27;;;;;;;4.28;75.20;99530.00;5014858;28;20041;-55
2021/11/25 03:26:58;;;;;;;17.90;15.00;;;;;;;4.28;75.89;99531.72;5014805;28;20033;-54
2021/11/25 03:29:31;;;;;;;18.10;14.73;;;;;;;4.29;75.21;99538.56;4997264;28;20042;-55
2021/11/25 03:31:57;;;;;;;18.40;15.43;;;;;;;4.28;75.68;99531.72;4996701;28;20044;-55
2021/11/25 03:34:28;;;;;;;19.73;16.17;;;;;;;4.28;76.00;99529.16;5014497;28;20389;-54
2021/11/25 03:36:56;;;;;;;16.75;14.10;;;;;;;4.27;75.79;99520.56;4996892;28;20141;-54
2021/11/25 03:39:25;;;;;;;17.73;15.57;;;;;;;4.28;75.84;99530.00;5014137;28;20069;-54
2021/11/25 03:41:58;;;;;;;17.75;14.20;;;;;;;4.29;75.58;99531.75;4997191;28;20049;-55
2021/11/25 03:44:29;;;;;;;18.08;16.13;;;;;;;4.26;75.55;99532.53;4980395;28;20038;-55
2021/11/25 03:46:57;;;;;;;18.33;16.15;;;;;;;4.28;75.92;99544.53;4996402;28;20038;-54
2021/11/25 03:49:22;;;;;;;20.23;16.23;;;;;;;4.26;75.98;99540.22;5014389;28;20096;-54
2021/11/25 03:51:48;;;;;;;20.55;15.68;;;;;;;4.26;75.51;99534.19;4996681;28;20038;-55
2021/11/25 03:54:19;;;;;;;19.33;16.65;;;;;;;4.26;76.05;99531.63;4996366;28;20034;-55
2021/11/25 03:56:44;;;;;;;20.05;16.52;;;;;;;4.24;76.08;99523.91;4980446;28;20519;-55
2021/11/25 03:59:15;;;;;;;25.27;15.73;;;;;;;4.24;75.90;99517.88;4996360;28;20033;-55
2021/11/25 04:01:45;;;;;;;19.60;15.13;;;;;;;4.22;75.47;99517.84;5014092;28;20050;-55
2021/11/25 04:04:14;;;;;;;18.83;14.68;;;;;;;4.22;75.82;99512.72;4980192;28;20034;-55
2021/11/25 04:06:42;;;;;;;20.88;15.63;;;;;;;4.21;75.62;99520.34;4996407;28;20045;-55
2021/11/25 04:09:13;;;;;;;20.95;16.15;;;;;;;4.21;75.98;99512.66;4980323;28;20040;-55
2021/11/25 04:11:39;;;;;;;21.10;16.05;;;;;;;4.18;75.91;99505.72;5013998;28;20069;-54
2021/11/25 04:14:13;;;;;;;21.00;16.02;;;;;;;4.19;75.62;99516.88;4995407;28;20034;-55
2021/11/25 04:16:42;;;;;;;19.67;15.77;;;;;;;4.18;75.05;99507.44;4996319;28;20121;-55
2021/11/25 04:19:10;;;;;;;21.15;15.70;;;;;;;4.16;75.51;99512.50;5013769;28;20041;-55
2021/11/25 04:21:36;;;;;;;22.83;15.82;;;;;;;4.13;75.64;99504.69;4979910;28;20501;-55
2021/11/25 04:24:13;;;;;;;21.60;14.57;;;;;;;4.14;75.39;99496.19;5013642;28;20044;-54
2021/11/25 04:26:42;;;;;;;18.98;14.50;;;;;;;4.11;75.46;99501.25;4980100;28;20425;-56
2021/11/25 04:29:08;;;;;;;20.05;14.77;;;;;;;4.10;75.70;99502.06;4996440;28;20034;-55
2021/11/25 04:37:08;;;;;;;20.38;16.13;;;;;;;4.03;75.55;99500.97;4996255;28;20310;-54
2021/11/25 04:39:38;;;;;;;17.92;14.63;;;;;;;4.03;75.30;99508.69;5013394;28;20041;-55
2021/11/25 04:42:10;;;;;;;18.08;14.82;;;;;;;4.03;75.50;99513.81;5013549;28;20489;-54
2021/11/25 04:44:44;;;;;;;20.65;15.27;;;;;;;4.04;75.82;99509.53;4979967;28;20088;-55
2021/11/25 04:47:11;;;;;;;18.13;14.80;;;;;;;4.00;75.50;99503.44;5013454;28;20038;-55
2021/11/25 04:49:37;;;;;;;18.05;15.23;;;;;;;3.99;75.66;99504.25;4995815;28;20116;-55
2021/11/25 04:52:11;;;;;;;19.48;15.73;;;;;;;3.96;75.63;99505.03;4979546;28;20034;-55
2021/11/25 04:54:41;;;;;;;21.02;16.05;;;;;;;3.95;75.03;99508.41;5013306;28;20481;-55
2021/11/25 04:57:08;;;;;;;18.10;14.25;;;;;;;3.94;75.26;99509.22;4995759;28;20033;-54
2021/11/25 04:59:40;;;;;;;20.50;15.93;;;;;;;3.93;75.28;99502.34;4995979;28;20123;-55
2021/11/25 05:02:10;;;;;;;21.15;15.02;;;;;;;3.92;75.67;99510.88;5013186;28;20133;-54
2021/11/25 05:04:38;;;;;;;21.98;15.23;;;;;;;3.93;75.56;99511.72;4979548;28;20493;-55
2021/11/25 05:07:06;;;;;;;19.08;14.18;;;;;;;3.92;75.66;99509.97;4979538;28;20034;-56
2021/11/25 05:09:35;;;;;;;20.02;14.52;;;;;;;3.92;75.06;99510.88;4995650;28;20037;-55
2021/11/25 05:12:00;;;;;;;19.17;15.23;;;;;;;3.91;76.04;99516.81;5013164;28;20482;-54
2021/11/25 05:14:29;;;;;;;17.75;14.52;;;;;;;3.92;75.10;99518.56;5013053;28;20092;-55
2021/11/25 05:16:59;;;;;;;20.30;16.35;;;;;;;3.90;75.61;99514.19;5013417;28;20433;-54
2021/11/25 05:19:24;;;;;;;19.48;16.05;;;;;;;3.88;75.52;99511.56;4979703;28;20138;-55
2021/11/25 05:21:55;;;;;;;19.83;14.68;;;;;;;3.89;75.31;99520.16;5013065;28;20456;-55
2021/11/25 05:24:24;;;;;;;16.77;14.52;;;;;;;3.88;75.33;99529.53;5014090;28;20116;-55
2021/11/25 05:26:57;;;;;;;23.35;16.48;;;;;;;3.87;75.04;99522.66;4999337;28;20041;-54
2021/11/25 05:29:28;;;;;;;19.98;14.80;;;;;;;3.86;75.57;99527.72;4998890;28;20041;-54
2021/11/25 05:31:56;;;;;;;21.58;16.20;;;;;;;3.84;75.51;99534.50;4999447;28;20073;-55
2021/11/25 05:34:27;;;;;;;23.25;17.23;;;;;;;3.82;75.61;99534.41;5016684;28;20442;-54
2021/11/25 05:37:09;;;;;;;20.25;15.40;;;;;;;3.80;75.69;99531.81;4999437;28;20034;-54
2021/11/25 05:39:43;;;;;;;21.70;15.95;;;;;;;3.79;75.36;99524.09;5016770;28;20034;-54
2021/11/25 05:42:12;;;;;;;;;;;;;;;3.78;74.61;99520.63;4999519;28;20071;-54
2021/11/25 05:44:43;;;;;;;25.15;16.55;;;;;;;3.78;75.04;99527.47;4982850;28;20281;-54
2021/11/25 05:47:17;;;;;;;22.75;16.17;;;;;;;3.78;75.16;99517.22;4982808;28;20038;-54
2021/11/25 05:49:53;;;;;;;27.10;17.05;;;;;;;3.78;75.12;99520.63;4998634;28;20038;-55
2021/11/25 05:52:25;;;;;;;22.85;18.23;;;;;;;3.79;75.34;99518.97;5016330;28;20034;-54
2021/11/25 05:55:01;;;;;;;22.10;17.55;;;;;;;3.79;75.56;99504.44;5015095;28;20045;-54
2021/11/25 05:57:27;;;;;;;24.50;17.58;;;;;;;3.78;75.10;99505.25;4998830;28;20046;-54
2021/11/25 06:00:02;;;;;;;25.92;19.20;;;;;;;3.79;75.49;99499.31;4998413;28;20088;-55
2021/11/25 06:02:36;;;;;;;24.95;18.40;;;;;;;3.79;75.98;99501.88;5016001;28;20084;-54
2021/11/25 06:05:08;;;;;;;25.45;19.10;;;;;;;3.79;75.40;99493.31;4982097;28;20497;-55
2021/11/25 06:07:45;;;;;;;23.17;17.52;;;;;;;3.80;75.58;99492.50;5016096;28;20042;-55
2021/11/25 06:10:20;;;;;;;27.10;18.02;;;;;;;3.79;75.02;99485.63;5016157;28;20092;-55
2021/11/25 06:12:56;;;;;;;21.65;17.05;;;;;;;3.77;75.30;99485.56;5015902;28;20084;-54
2021/11/25 06:15:30;;;;;;;24.52;18.83;;;;;;;3.78;74.78;99487.31;5015600;28;20037;-55
2021/11/25 06:17:56;;;;;;;26.92;18.40;;;;;;;3.78;75.40;99486.44;4982186;28;20508;-55
2021/11/25 06:20:28;;;;;;;25.77;19.17;;;;;;;3.78;74.94;99479.63;5015734;28;20038;-55
2021/11/25 06:22:59;;;;;;;24.75;17.75;;;;;;;3.77;75.68;99477.88;4999119;28;20034;-55
2021/11/25 06:25:35;;;;;;;24.20;18.83;;;;;;;3.77;75.72;99483.00;4997989;28;20036;-55
2021/11/25 06:28:15;;;;;;;;;;;;;;;3.74;75.20;99488.00;4998050;28;20116;-55
2021/11/25 06:30:43;;;;;;;30.15;18.30;;;;;;;3.73;75.18;99493.09;5015610;28;19913;-55
2021/11/25 06:33:12;;;;;;;24.98;18.92;;;;;;;3.73;75.18;99509.38;5015558;28;20393;-55
2021/11/25 06:35:43;;;;;;;32.13;22.30;;;;;;;3.73;75.36;99511.03;4981227;28;20129;-54
2021/11/25 06:38:14;;;;;;;33.00;25.77;;;;;;;3.71;75.24;99500.75;4981087;28;20095;-54
2021/11/25 06:40:49;;;;;;;37.60;27.20;;;;;;;3.72;75.74;99511.84;4998078;28;20033;-55
2021/11/25 06:43:17;;;;;;;;;;;;;;;3.69;75.19;99507.50;4982311;28;20037;-56
2021/11/25 06:45:52;;;;;;;36.47;24.35;;;;;;;3.68;74.80;99512.56;4981443;28;20373;-55
2021/11/25 06:48:20;;;;;;;28.98;21.98;;;;;;;3.67;75.07;99519.41;4997622;28;20037;-54
2021/11/25 06:50:54;;;;;;;25.35;19.13;;;;;;;3.65;74.51;99521.03;5015186;28;20030;-54
2021/11/25 06:53:31;;;;;;;25.77;19.25;;;;;;;3.62;74.82;99534.63;4981704;28;20038;-54
2021/11/25 06:56:05;;;;;;;23.33;18.33;;;;;;;3.62;75.01;99534.63;5014874;28;20120;-54
2021/11/25 06:58:55;;;;;;;23.92;17.38;;;;;;;3.62;74.56;99538.84;4997657;28;20129;-56
2021/11/25 07:01:29;;;;;;;24.35;18.25;;;;;;;3.61;74.76;99526.84;5014965;28;20026;-55
2021/11/25 07:04:06;;;;;;;26.33;17.48;;;;;;;3.60;74.68;99526.00;4975640;28;20518;-56
2021/11/25 07:06:46;;;;;;;23.60;17.10;;;;;;;3.57;74.92;99528.44;4975990;28;20478;-54
2021/11/25 07:09:24;;;;;;;25.92;17.48;;;;;;;3.59;74.82;99518.22;4958864;28;20058;-55
2021/11/25 07:12:03;;;;;;;22.00;17.05;;;;;;;3.58;74.85;99532.75;4975668;28;20031;-55
2021/11/25 07:14:39;;;;;;;22.33;16.90;;;;;;;3.58;74.95;99530.19;4974697;28;20039;-55
2021/11/25 07:17:19;;;;;;;25.27;18.20;;;;;;;3.60;74.81;99528.56;4974642;28;20039;-55
2021/11/25 07:19:53;;;;;;;27.55;18.67;;;;;;;3.61;75.18;99525.19;4974472;28;20038;-55
2021/11/25 07:22:35;;;;;;;26.90;19.45;;;;;;;3.60;75.17;99518.31;4990441;28;20038;-55
2021/11/25 07:25:13;;;;;;;25.42;18.35;;;;;;;3.60;74.72;99513.19;4974333;28;20486;-55
2021/11/25 07:27:52;;;;;;;25.40;20.38;;;;;;;3.62;75.28;99519.22;4958584;28;20157;-55
2021/11/25 07:30:29;;;;;;;28.83;22.00;;;;;;;3.64;75.13;99517.59;4975350;28;20114;-55
2021/11/25 07:33:03;;;;;;;28.75;21.58;;;;;;;3.66;75.57;99522.78;4974687;28;20038;-54
2021/11/25 07:35:46;;;;;;;32.25;22.27;;;;;;;3.66;75.30;99515.09;4974176;28;20039;-55
2021/11/25 07:38:28;;;;;;;34.90;24.52;;;;;;;3.69;75.24;99514.31;4974480;28;20038;-54
2021/11/25 07:41:06;;;;;;;34.40;24.73;;;;;;;3.66;75.19;99510.81;4975691;28;20066;-55
2021/11/25 07:43:40;;;;;;;35.28;22.98;;;;;;;3.66;75.36;99512.53;4975463;28;20097;-54
2021/11/25 07:46:20;;;;;;;29.58;21.73;;;;;;;3.66;75.50;99510.81;4974088;28;20097;-55
2021/11/25 07:48:51;;;;;;;29.55;20.15;;;;;;;3.65;75.09;99510.78;4974405;28;20046;-54
2021/11/25 07:51:22;;;;;;;27.23;21.15;;;;;;;3.64;75.00;99517.59;4975621;28;20118;-54
2021/11/25 07:54:01;;;;;;;27.88;20.45;;;;;;;3.63;75.16;99509.84;4957622;28;20034;-55
2021/11/25 07:56:38;;;;;;;29.48;19.23;;;;;;;3.64;75.09;99509.03;4975015;28;20087;-55
2021/11/25 07:59:14;;;;;;;26.25;20.20;;;;;;;3.64;74.70;99503.91;4975140;28;20088;-55
2021/11/25 08:01:51;;;;;;;33.70;21.02;;;;;;;3.64;74.92;99498.78;4978312;28;20035;-55
2021/11/25 08:04:25;;;;;;;28.70;20.02;;;;;;;3.64;74.97;99507.34;5014131;28;20037;-55
2021/11/25 08:07:04;;;;;;;28.65;21.00;;;;;;;3.64;75.38;99509.91;5013976;28;20042;-55
2021/11/25 08:09:41;;;;;;;28.48;20.65;;;;;;;3.65;75.37;99513.34;5013949;28;20030;-54
2021/11/25 08:12:21;;;;;;;32.35;21.23;;;;;;;3.65;75.02;99508.22;4996158;28;20050;-55
2021/11/25 08:14:55;;;;;;;25.15;20.08;;;;;;;3.65;74.92;99514.22;4996343;28;20038;-55
2021/11/25 08:17:30;;;;;;;31.15;22.85;;;;;;;3.64;74.92;99497.09;4980020;28;20042;-55
2021/11/25 08:20:12;;;;;;;33.15;22.42;;;;;;;3.65;74.77;99501.41;4980245;28;20026;-55
2021/11/25 08:22:49;;;;;;;31.38;21.50;;;;;;;3.65;75.45;99509.09;4996576;28;20077;-56
2021/11/25 08:25:26;;;;;;;34.83;23.75;;;;;;;3.67;74.91;99509.13;4995508;28;20129;-55
2021/11/25 08:28:03;;;;;;;34.72;23.33;;;;;;;3.66;74.85;99513.38;5012683;28;20035;-55
2021/11/25 08:30:42;;;;;;;33.47;23.20;;;;;;;3.66;74.66;99508.25;4996185;28;20037;-55
2021/11/25 08:33:16;;;;;;;34.00;22.42;;;;;;;3.69;75.46;99509.19;4980907;28;20069;-54
2021/11/25 08:36:02;;;;;;;41.75;23.60;;;;;;;3.70;75.51;99504.13;4979462;28;20038;-55
2021/11/25 08:38:42;;;;;;;30.60;24.42;;;;;;;3.69;74.97;99501.50;4996355;28;20068;-55
2021/11/25 08:41:19;;;;;;;32.83;22.98;;;;;;;3.69;75.25;99507.50;5013508;28;20044;-55
2021/11/25 08:43:53;;;;;;;37.45;23.83;;;;;;;3.69;75.21;99519.44;4996477;28;20077;-55
2021/11/25 08:46:36;;;;;;;31.73;23.48;;;;;;;3.69;74.69;99522.88;5012313;28;20061;-54
2021/11/25 08:49:17;;;;;;;33.97;23.73;;;;;;;3.69;75.28;99527.13;5013539;28;20501;-55
2021/11/25 08:51:54;;;;;;;34.00;23.63;;;;;;;3.69;74.82;99527.13;4996257;28;20037;-55
2021/11/25 08:54:34;;;;;;;34.78;22.52;;;;;;;3.69;75.31;99529.69;5012995;28;20034;-55
2021/11/25 08:57:17;;;;;;;35.60;23.35;;;;;;;3.70;75.44;99534.88;5012426;28;20448;-54
2021/11/25 08:59:56;;;;;;;36.40;25.70;;;;;;;3.72;75.36;99528.13;4997295;28;20042;-54
2021/11/25 09:02:44;;;;;;;32.80;23.27;;;;;;;3.72;75.55;99527.25;4999858;28;20054;-54
2021/11/25 09:05:19;;;;;;;38.03;25.98;;;;;;;3.71;75.17;99520.38;4983529;28;20379;-55
2021/11/25 09:08:02;;;;;;;38.03;25.52;;;;;;;3.72;74.95;99520.44;4983658;28;20037;-56
2021/11/25 09:10:47;;;;;;;37.25;25.77;;;;;;;3.72;75.25;99517.88;5015918;28;20034;-55
2021/11/25 09:13:29;;;;;;;40.67;25.38;;;;;;;3.73;75.25;99526.41;4999908;28;20030;-55
2021/11/25 09:16:09;;;;;;;44.00;27.73;;;;;;;3.73;75.03;99529.88;4999699;28;20371;-54
2021/11/25 09:18:48;;;;;;;40.13;26.27;;;;;;;3.73;75.72;99531.53;4983499;28;20037;-55
2021/11/25 09:21:46;;;;;;;37.53;26.40;;;;;;;3.74;75.33;99535.84;4999190;28;20121;-54
2021/11/25 09:24:26;;;;;;;44.38;29.17;;;;;;;3.72;75.77;99530.69;4983019;28;20038;-55
2021/11/25 09:27:11;;;;;;;47.50;29.45;;;;;;;3.73;75.37;99544.38;4999260;28;20034;-54
2021/11/25 09:29:42;;;;;;;55.13;31.98;;;;;;;3.73;75.08;99552.06;5016713;28;20042;-54
2021/11/25 09:32:31;;;;;;;45.85;30.67;;;;;;;3.74;75.25;99546.97;4999239;28;20501;-56
2021/11/25 09:35:13;;;;;;;47.05;31.73;;;;;;;3.75;75.29;99537.59;4982658;28;20038;-54
2021/11/25 09:37:49;;;;;;;55.30;32.28;;;;;;;3.76;75.49;99549.59;5016333;28;20121;-54
2021/11/25 09:40:30;;;;;;;56.67;34.63;;;;;;;3.78;75.27;99547.97;5016951;28;20041;-55
2021/11/25 09:43:20;;;;;;;57.30;32.58;;;;;;;3.78;75.75;99555.66;4999146;28;20067;-55
2021/11/25 09:46:04;;;;;;;55.10;34.70;;;;;;;3.78;75.31;99553.97;4999011;28;20040;-55
2021/11/25 09:48:37;;;;;;;54.63;35.40;;;;;;;3.80;75.81;99556.59;4999054;28;20057;-55
2021/11/25 09:51:19;;;;;;;59.40;37.83;;;;;;;3.80;75.53;99561.72;4982350;28;20045;-54
2021/11/25 09:53:54;;;;;;;59.35;36.30;;;;;;;3.80;75.32;99557.44;4982728;28;20041;-56
2021/11/25 09:56:27;;;;;;;55.33;36.20;;;;;;;3.81;75.72;99551.50;5016009;28;20136;-54
2021/11/25 09:59:07;;;;;;;56.00;37.10;;;;;;;3.81;75.60;99553.22;4982925;28;20044;-55
2021/11/25 10:01:41;;;;;;;58.30;37.90;;;;;;;3.82;75.49;99552.38;4998610;28;20046;-55
2021/11/25 10:04:20;;;;;;;59.08;36.55;;;;;;;3.83;75.43;99555.81;4998718;28;20026;-55
2021/11/25 10:06:59;;;;;;;56.53;37.35;;;;;;;3.82;75.75;99547.25;4998800;28;20046;-55
2021/11/25 10:09:38;;;;;;;64.45;36.72;;;;;;;3.81;75.80;99556.63;4998038;28;20038;-55
2021/11/25 10:12:38;;;;;;;57.58;38.00;;;;;;;3.82;75.34;99549.81;4981419;28;20448;-55
2021/11/25 10:15:32;;;;;;;59.17;36.90;;;;;;;3.81;75.25;99541.25;4997735;28;20038;-54
2021/11/25 10:18:01;;;;;;;61.15;36.28;;;;;;;3.81;75.45;99543.81;4998643;28;20041;-54
2021/11/25 10:20:31;;;;;;;61.00;38.35;;;;;;;3.81;75.76;99536.13;4998402;28;20428;-55
2021/11/25 10:23:26;;;;;;;60.97;36.85;;;;;;;3.81;75.58;99541.25;4998237;28;20042;-54
2021/11/25 10:26:08;;;;;;;57.75;35.67;;;;;;;3.83;75.44;99530.19;4980813;28;20448;-55
2021/11/25 10:28:58;;;;;;;62.53;37.13;;;;;;;3.83;75.62;99538.72;5015749;28;20049;-55
2021/11/25 10:31:41;;;;;;;60.28;37.45;;;;;;;3.85;75.59;99543.94;4998142;28;20375;-54
2021/11/25 10:34:20;;;;;;;54.10;35.28;;;;;;;3.86;75.76;99540.56;5015363;28;20048;-55
2021/11/25 10:37:37;;;;;;;50.85;33.35;;;;;;;3.87;75.44;99547.44;5015720;28;20056;-54
2021/11/25 10:40:12;;;;;;;57.60;34.65;;;;;;;3.86;75.37;99548.25;5013797;28;20108;-55
2021/11/25 10:42:50;;;;;;;57.80;35.03;;;;;;;3.88;75.15;99549.19;5015363;28;20034;-55
2021/11/25 10:45:30;;;;;;;52.22;34.15;;;;;;;3.90;75.40;99552.63;4998114;28;20037;-55
2021/11/25 10:48:09;;;;;;;54.72;34.72;;;;;;;3.89;75.49;99548.34;5015361;28;20037;-54
2021/11/25 10:50:45;;;;;;;58.60;35.10;;;;;;;3.90;75.56;99550.97;4981587;28;20034;-55
2021/11/25 10:53:17;;;;;;;55.90;32.20;;;;;;;3.89;75.60;99543.22;4982059;28;20041;-55
2021/11/25 10:55:54;;;;;;;55.78;34.22;;;;;;;3.90;75.43;99537.25;4998179;28;20038;-55
2021/11/25 10:58:47;;;;;;;52.75;32.75;;;;;;;3.88;75.93;99529.53;4998264;28;20481;-56
2021/11/25 11:01:35;;;;;;;44.43;32.27;;;;;;;3.86;75.99;99525.16;4997949;28;20048;-54
2021/11/25 11:04:09;;;;;;;46.42;32.22;;;;;;;3.87;76.09;99511.53;4974650;28;20613;-55
2021/11/25 11:06:49;;;;;;;57.97;33.75;;;;;;;3.85;75.60;99493.50;4958919;28;20049;-55
2021/11/25 11:09:39;;;;;;;57.78;34.13;;;;;;;3.87;75.58;99520.09;4974665;28;20038;-55
2021/11/25 11:12:35;;;;;;;57.42;31.20;;;;;;;3.90;76.04;99532.13;4974488;28;20062;-55
2021/11/25 11:20:48;;;;;;;53.33;32.75;;;;;;;3.95;75.78;99518.66;4976072;28;20046;-54
2021/11/25 11:23:21;;;;;;;54.17;31.23;;;;;;;3.95;75.69;99513.53;4958549;28;20064;-54
2021/11/25 11:25:52;;;;;;;52.47;33.83;;;;;;;3.96;75.74;99505.03;4976032;28;20047;-54
2021/11/25 11:28:26;;;;;;;47.58;30.90;;;;;;;3.99;75.96;99511.06;4975588;28;20042;-55
2021/11/25 11:30:58;;;;;;;57.78;33.13;;;;;;;3.98;76.34;99502.50;4974342;28;20097;-54
2021/11/25 11:33:36;;;;;;;53.80;33.42;;;;;;;3.99;75.65;99509.38;4959125;28;20051;-55
2021/11/25 11:36:02;;;;;;;55.10;33.47;;;;;;;3.98;75.98;99505.06;4975486;28;20038;-55
2021/11/25 11:38:37;;;;;;;52.33;31.67;;;;;;;4.01;75.95;99501.72;4975441;28;20042;-54
2021/11/25 11:41:11;;;;;;;53.60;32.60;;;;;;;4.01;75.70;99496.59;4975172;28;20485;-55
2021/11/25 11:43:40;;;;;;;51.90;32.30;;;;;;;4.02;75.96;99493.22;4975420;28;20129;-54
2021/11/25 11:46:14;;;;;;;51.38;31.10;;;;;;;4.05;76.20;99490.75;4975489;28;20071;-55
2021/11/25 11:48:42;;;;;;;;;;;;;;;4.03;75.51;99482.13;4975555;28;20418;-55
2021/11/25 11:51:18;;;;;;;50.38;30.10;;;;;;;4.04;76.49;99489.91;4973922;28;19918;-54
2021/11/25 11:53:57;;;;;;;49.13;30.48;;;;;;;4.05;75.54;99477.94;4974158;28;20125;-54
2021/11/25 11:56:51;;;;;;;49.00;32.63;;;;;;;4.04;76.31;99474.53;4975217;28;20486;-55
2021/11/25 11:59:44;;;;;;;53.05;33.15;;;;;;;4.07;76.08;99473.72;4974257;28;20050;-56
2021/11/25 12:02:38;;;;;;;53.88;32.08;;;;;;;4.07;75.89;99469.47;4979526;28;20489;-55
2021/11/25 12:05:06;;;;;;;47.25;32.00;;;;;;;4.08;75.98;99471.22;4994358;28;20074;-55
2021/11/25 12:07:32;;;;;;;53.47;31.73;;;;;;;4.11;75.63;99470.47;4994252;28;20038;-55
2021/11/25 12:09:58;;;;;;;53.55;32.40;;;;;;;4.11;75.89;99468.75;4994178;28;20030;-55